Allentown, PA

11:50 EST dnia 08-luty-2016 (GMT -0500)
West Park | | Change Station
CLOSE
Current Station
Stacja PWS
Location: Allentown, PA
n.p.m.: 400 ft
Najbliższa stacja pogodowa

Wysokość 400 ft 40.60 °N, 75.49 °W | Updated 6 minutes ago

Overcast
pochmurno
40.6 ° F
Odczuwalna 35 ° F
Płn.
7.8
Wiatr zmienny Wiatr od PnPnWs

Dziś
Wysoka -- | Niska -- ° F
--% Prawdop. opadów
Wczoraj
Wysoka -- | Niska -- ° F
Precip. -- cali
Ciśnienie 29.78 cali
Widzialność 10.0 mil
chmury przewaga chmur 2900 ft
pochmurno 3500 ft
czynnik chłodzący wiatru 35 ° F
Punkt rosy 26 ° F
Wilgotność 56%
Opady deszczu 0.00 cali
grubość pokrywy śnieżnej Niedostępne.
7:04 AM 5:27 PM
Nów, 0% visible
METAR KXLL 081635Z AUTO 06010KT 10SM BKN029 OVC035 05/M02 A2978 RMK AO2
Ciśnienie 29.78 cali
Widzialność 10.0 mil
chmury przewaga chmur 2900 ft
pochmurno 3500 ft
czynnik chłodzący wiatru 35 ° F
Punkt rosy 26 ° F
Wilgotność 56%
Opady deszczu 0.00 cali
grubość pokrywy śnieżnej Niedostępne.
7:04 AM 5:27 PM
Nów, 0% visible
METAR KXLL 081635Z AUTO 06010KT 10SM BKN029 OVC035 05/M02 A2978 RMK AO2

10-Day Weather Forecast

Almanac

Astronomia

Feb. 08, 2016 Wschód Zachów
Aktualny czas
Zmierzch cywilny
Zmierzch żeglarski
świt/zmierzch astronomiczny
Księżyc
całkowite oświetlenie
Długość dnia
Tomorrow will be .
, % of the Moon is Illuminated

Dzisiejsze ekstrema

State Highs State Lows

Community

WunderPhotos

Upload Photos

1,891,462 zdjęcia zostały przesłane!

WunderBlog® & News

Nearby

Jakość powietrza

  Jakość powietrza czynnik AQ Zanieczyszczenie
Not available.

Głębokość pokrywy śnieżnej

Station Depth n.p.m.

Aktywność sejsmiczna

Miejscowość Distance Mag. Time & Date
Minimum magnitude displayed is 2.5.

Temperatury wody na wybrzeżu

Miejsce Temperatura

Stations

Najbliższa stacja pogodowa

Lokalizacja stacji Temp. czynnik chłodzący wiatru Punkt rosy Wilgotność Wiatr Precip. Wysokość Uaktualniono Typ
                   

Watches & Warnings

There are currently no watches in effect.